Time;durP1;ratioP1;P1;durP2;ratioP2;P2;SDS_P1;SDS_P2;PMS_P1;PMS_P2;Temp;Humidity;BMP_temperature;BMP_pressure;BME280_temperature;BME280_humidity;BME280_pressure;Samples;Min_cycle;Max_cycle;Signal;HPM_P1;HPM_P2
2022/03/29 00:02:25;;;;;;;;;;;9.90;91.10;;;;;;5056898;28;20004;-87
2022/03/29 00:05:06;;;;;;;;;;;;;;;;;;;;;
2022/03/29 00:07:35;;;;;;;;;;;9.80;91.20;;;;;;5074346;28;19916;-88
2022/03/29 00:10:04;;;;;;;;;;;9.80;91.30;;;;;;5073212;28;19915;-88
2022/03/29 00:12:37;;;;;;;;;;;9.70;91.30;;;;;;5072919;28;20316;-88
2022/03/29 00:15:08;;;;;;;;;;;9.70;91.40;;;;;;5072437;28;19958;-87
2022/03/29 00:17:39;;;;;;;;;;;9.60;91.70;;;;;;5073308;28;20271;-87
2022/03/29 00:20:12;;;;;;;;;;;9.60;91.40;;;;;;5073521;28;20327;-88
2022/03/29 00:22:38;;;;;;;;;;;9.60;91.50;;;;;;5056114;28;20013;-88
2022/03/29 00:25:04;;;;;;;;;;;9.50;91.50;;;;;;5073135;28;20416;-88
2022/03/29 00:27:36;;;;;;;;;;;9.50;91.60;;;;;;5072973;28;19913;-87
2022/03/29 00:30:06;;;;;;;;;;;9.40;91.60;;;;;;5072727;28;19909;-88
2022/03/29 00:32:40;;;;;;;;;;;9.50;91.60;;;;;;5073015;28;19912;-88
2022/03/29 00:35:14;;;;;;;;;;;9.40;91.60;;;;;;5073004;28;19963;-85
2022/03/29 00:37:42;;;;;;;;;;;9.40;91.60;;;;;;5075792;28;19909;-89
2022/03/29 00:40:19;;;;;;;;;;;9.40;91.60;;;;;;5075808;28;19909;-88
2022/03/29 00:43:09;;;;;;;;;;;9.30;91.60;;;;;;5060173;28;20356;-87
2022/03/29 00:45:48;;;;;;;;;;;9.30;91.60;;;;;;5076334;28;19924;-87
2022/03/29 00:48:16;;;;;;;;;;;9.30;91.70;;;;;;5060845;28;19932;-87
2022/03/29 00:50:43;;;;;;;;;;;9.30;91.70;;;;;;5060302;28;20019;-87
2022/03/29 00:53:14;;;;;;;;;;;9.30;91.70;;;;;;5077112;28;19999;-88
2022/03/29 00:55:44;;;;;;;;;;;9.20;91.70;;;;;;5078303;28;19909;-87
2022/03/29 00:58:12;;;;;;;;;;;9.20;91.80;;;;;;5076522;28;19908;-87
2022/03/29 01:00:40;;;;;;;;;;;9.20;91.90;;;;;;5076913;28;19909;-87
2022/03/29 01:03:06;;;;;;;;;;;9.20;91.90;;;;;;5078083;28;19908;-87
2022/03/29 01:05:32;;;;;;;;;;;9.10;92.20;;;;;;5075785;28;19916;-87
2022/03/29 01:08:08;;;;;;;;;;;9.00;92.30;;;;;;5077692;28;19952;-87
2022/03/29 01:10:37;;;;;;;;;;;8.90;92.40;;;;;;5079239;28;19908;-90
2022/03/29 01:13:17;;;;;;;;;;;;;;;;;;;;;
2022/03/29 01:15:52;;;;;;;;;;;8.90;92.50;;;;;;5101288;28;20574;-90
2022/03/29 01:18:29;;;;;;;;;;;;;;;;;;;;;
2022/03/29 01:20:56;;;;;;;;;;;8.80;92.60;;;;;;5091986;28;19963;-88
2022/03/29 01:23:25;;;;;;;;;;;8.80;92.70;;;;;;5076579;28;19917;-87
2022/03/29 01:26:11;;;;;;;;;;;8.70;92.90;;;;;;5075813;28;20282;-87
2022/03/29 01:28:39;;;;;;;;;;;8.70;92.90;;;;;;5092727;28;19954;-89
2022/03/29 01:31:08;;;;;;;;;;;8.70;93.00;;;;;;5075853;28;19916;-89
2022/03/29 01:33:33;;;;;;;;;;;8.70;93.00;;;;;;5058871;28;20408;-88
2022/03/29 01:36:19;;;;;;;;;;;8.70;93.00;;;;;;5075508;28;19963;-87
2022/03/29 01:39:02;;;;;;;;;;;;;;;;;;;;;
2022/03/29 01:41:43;;;;;;;;;;;8.70;93.10;;;;;;5077187;28;19915;-87
2022/03/29 01:44:13;;;;;;;;;;;8.70;93.10;;;;;;5075697;28;19913;-87
2022/03/29 01:46:49;;;;;;;;;;;;;;;;;;;;;
2022/03/29 01:49:25;;;;;;;;;;;8.80;93.10;;;;;;5076271;28;19921;-88
2022/03/29 01:52:23;;;;;;;;;;;;;;;;;;;;;
2022/03/29 01:54:49;;;;;;;;;;;8.70;93.20;;;;;;5076448;28;19909;-88
2022/03/29 01:57:17;;;;;;;;;;;8.70;93.30;;;;;;5075384;28;20331;-87
2022/03/29 02:02:47;;;;;;;;;;;8.70;93.40;;;;;;5076086;28;19916;-87
2022/03/29 02:05:15;;;;;;;;;;;8.70;93.40;;;;;;5075984;28;19913;-88
2022/03/29 02:07:41;;;;;;;;;;;8.70;93.40;;;;;;5074810;28;19916;-88
2022/03/29 02:10:07;;;;;;;;;;;8.70;93.40;;;;;;5074816;28;19908;-89
2022/03/29 02:12:37;;;;;;;;;;;8.60;93.50;;;;;;5074762;28;19913;-88
2022/03/29 02:15:05;;;;;;;;;;;8.50;93.60;;;;;;5058783;28;19913;-87
2022/03/29 02:17:39;;;;;;;;;;;8.50;93.70;;;;;;5057826;28;19955;-87
2022/03/29 02:20:17;;;;;;;;;;;8.50;93.80;;;;;;5058831;28;20254;-88
2022/03/29 02:22:51;;;;;;;;;;;8.50;93.80;;;;;;5075041;28;19938;-89
2022/03/29 02:25:17;;;;;;;;;;;8.50;93.90;;;;;;5075258;28;19943;-87
2022/03/29 02:27:55;;;;;;;;;;;8.50;93.90;;;;;;5074613;28;19920;-89
2022/03/29 02:30:27;;;;;;;;;;;8.50;93.90;;;;;;5059969;28;20370;-87
2022/03/29 02:33:02;;;;;;;;;;;8.50;94.00;;;;;;5075949;28;19913;-88
2022/03/29 02:35:31;;;;;;;;;;;8.40;94.00;;;;;;5060319;28;19913;-87
2022/03/29 02:37:59;;;;;;;;;;;8.40;94.10;;;;;;5076210;28;19909;-87
2022/03/29 02:40:32;;;;;;;;;;;8.40;94.10;;;;;;5078126;28;19958;-87
2022/03/29 02:43:05;;;;;;;;;;;8.40;94.20;;;;;;5072195;28;19964;-87
2022/03/29 02:45:41;;;;;;;;;;;8.40;94.20;;;;;;5096773;28;19916;-87
2022/03/29 02:48:34;;;;;;;;;;;8.40;94.30;;;;;;5095821;28;19966;-87
2022/03/29 02:51:10;;;;;;;;;;;;;;;;;;;;;
2022/03/29 02:54:05;;;;;;;;;;;8.30;94.50;;;;;;5082831;28;19995;-87
2022/03/29 02:56:35;;;;;;;;;;;8.20;94.50;;;;;;5072365;28;20378;-88
2022/03/29 02:59:14;;;;;;;;;;;8.30;94.70;;;;;;5057528;28;20317;-87
2022/03/29 03:01:43;;;;;;;;;;;8.20;94.70;;;;;;5090952;28;19940;-87
2022/03/29 03:04:18;;;;;;;;;;;;;;;;;;;;;
2022/03/29 03:06:49;;;;;;;;;;;8.20;94.80;;;;;;5074752;28;19982;-88
2022/03/29 03:09:43;;;;;;;;;;;8.20;94.80;;;;;;5057762;28;20358;-88
2022/03/29 03:12:13;;;;;;;;;;;8.20;94.80;;;;;;5073368;28;19919;-88
2022/03/29 03:14:41;;;;;;;;;;;8.30;94.80;;;;;;5057529;28;19935;-87
2022/03/29 03:17:10;;;;;;;;;;;8.20;94.90;;;;;;5073625;28;19930;-88
2022/03/29 03:19:41;;;;;;;;;;;8.20;94.90;;;;;;5074088;28;19912;-87
2022/03/29 03:22:07;;;;;;;;;;;8.30;95.00;;;;;;5057170;28;19913;-87
2022/03/29 03:27:34;;;;;;;;;;;8.20;95.20;;;;;;5074285;28;20293;-88
2022/03/29 03:30:00;;;;;;;;;;;8.30;95.20;;;;;;5075191;28;19908;-88
2022/03/29 03:32:54;;;;;;;;;;;8.20;95.20;;;;;;5073773;28;20003;-88
2022/03/29 03:35:29;;;;;;;;;;;;;;;;;;;;;
2022/03/29 03:38:17;;;;;;;;;;;;;;;;;;;;;
2022/03/29 03:40:43;;;;;;;;;;;8.20;95.50;;;;;;5073953;28;19912;-88
2022/03/29 03:43:18;;;;;;;;;;;8.20;95.50;;;;;;5073373;28;19999;-87
2022/03/29 03:46:05;;;;;;;;;;;8.10;95.70;;;;;;5057609;28;19917;-88
2022/03/29 03:48:32;;;;;;;;;;;8.10;95.80;;;;;;5074023;28;19974;-87
2022/03/29 03:51:09;;;;;;;;;;;8.10;95.80;;;;;;5073523;28;19909;-87
2022/03/29 03:53:37;;;;;;;;;;;8.10;95.90;;;;;;5073734;28;20278;-87
2022/03/29 03:56:03;;;;;;;;;;;8.10;95.90;;;;;;5073510;28;19908;-88
2022/03/29 03:58:36;;;;;;;;;;;8.10;95.90;;;;;;5073213;28;19909;-88
2022/03/29 04:01:06;;;;;;;;;;;8.10;96.00;;;;;;5073229;28;19914;-88
2022/03/29 04:03:33;;;;;;;;;;;8.20;96.00;;;;;;5073480;28;20380;-87
2022/03/29 04:06:16;;;;;;;;;;;8.20;96.00;;;;;;5073452;28;20002;-87
2022/03/29 04:08:41;;;;;;;;;;;8.20;96.00;;;;;;5074258;28;19954;-87
2022/03/29 04:11:09;;;;;;;;;;;8.20;96.00;;;;;;5060333;28;19912;-88
2022/03/29 04:13:38;;;;;;;;;;;8.20;96.00;;;;;;5080680;28;19908;-88
2022/03/29 04:16:24;;;;;;;;;;;8.20;95.90;;;;;;5083499;28;19919;-87
2022/03/29 04:19:00;;;;;;;;;;;8.20;96.00;;;;;;5080569;28;19903;-86
2022/03/29 04:21:28;;;;;;;;;;;8.20;96.00;;;;;;5100001;28;19971;-85
2022/03/29 04:24:07;;;;;;;;;;;8.20;96.10;;;;;;5096855;28;19913;-87
2022/03/29 04:26:33;;;;;;;;;;;8.10;96.10;;;;;;5077421;28;19917;-85
2022/03/29 04:29:04;;;;;;;;;;;8.10;96.30;;;;;;5089444;28;19916;-87
2022/03/29 04:31:35;;;;;;;;;;;8.10;96.30;;;;;;5079145;28;20000;-88
2022/03/29 04:34:03;;;;;;;;;;;8.10;96.40;;;;;;5078279;28;19908;-89
2022/03/29 04:36:52;;;;;;;;;;;8.00;96.40;;;;;;5077890;28;19909;-89
2022/03/29 04:39:21;;;;;;;;;;;8.00;96.50;;;;;;5067939;28;19961;-89
2022/03/29 04:42:08;;;;;;;;;;;;;;;;;;;;;
2022/03/29 04:44:40;;;;;;;;;;;8.00;96.60;;;;;;5077039;28;20362;-88
2022/03/29 04:49:56;;;;;;;;;;;8.00;96.70;;;;;;5069935;28;19920;-88
2022/03/29 04:52:27;;;;;;;;;;;8.10;96.70;;;;;;5076721;28;19991;-89
2022/03/29 04:58:20;;;;;;;;;;;8.10;96.70;;;;;;5076472;28;19914;-88
2022/03/29 05:03:44;;;;;;;;;;;8.20;96.70;;;;;;5077944;28;19912;-88
2022/03/29 05:06:24;;;;;;;;;;;8.20;96.70;;;;;;5076483;28;19948;-88
2022/03/29 05:08:52;;;;;;;;;;;8.20;96.60;;;;;;5061439;28;20270;-88
2022/03/29 05:11:59;;;;;;;;;;;;;;;;;;;;;
2022/03/29 05:14:16;;;;;;;;;;;8.20;96.70;;;;;;5073216;28;19912;-89
2022/03/29 05:17:00;;;;;;;;;;;8.30;96.70;;;;;;5077529;28;20003;-92
2022/03/29 05:19:34;;;;;;;;;;;8.20;96.70;;;;;;5060395;28;19913;-88
2022/03/29 05:28:22;;;;;;;;;;;8.10;96.80;;;;;;5035409;28;20047;-91
2022/03/29 05:31:08;;;;;;;;;;;8.20;96.80;;;;;;5035327;28;19920;-91
2022/03/29 05:33:36;;;;;;;;;;;8.10;96.90;;;;;;5035509;28;19944;-91
2022/03/29 05:36:38;;;;;;;;;;;;;;;;;;;;;
2022/03/29 05:39:08;;;;;;;;;;;8.10;97.00;;;;;;5005824;28;19925;-93
2022/03/29 05:42:07;;;;;;;;;;;;;;;;;;;;;
2022/03/29 05:44:38;;;;;;;;;;;8.10;97.00;;;;;;5077094;28;20466;-90
2022/03/29 05:50:15;;;;;;;;;;;8.20;97.00;;;;;;5077408;28;20377;-90
2022/03/29 05:52:43;;;;;;;;;;;8.20;97.00;;;;;;5097244;28;19998;-90
2022/03/29 05:55:11;;;;;;;;;;;8.10;97.00;;;;;;5082077;28;19901;-94
2022/03/29 05:57:36;;;;;;;;;;;8.20;97.00;;;;;;5098849;28;19923;-89
2022/03/29 06:00:10;;;;;;;;;;;8.20;97.00;;;;;;5098420;28;19920;-90
2022/03/29 06:02:39;;;;;;;;;;;8.10;97.00;;;;;;5077068;28;19908;-90
2022/03/29 06:05:19;;;;;;;;;;;;;;;;;;;;;
2022/03/29 06:07:52;;;;;;;;;;;8.10;97.00;;;;;;5076043;28;19917;-91
2022/03/29 06:10:39;;;;;;;;;;;;;;;;;;;;;
2022/03/29 06:13:06;;;;;;;;;;;8.10;97.00;;;;;;5075532;28;19912;-90
2022/03/29 06:15:37;;;;;;;;;;;8.10;97.10;;;;;;5075126;28;19909;-88
2022/03/29 06:18:03;;;;;;;;;;;8.10;97.20;;;;;;5075034;28;19913;-88
2022/03/29 06:20:30;;;;;;;;;;;8.00;97.30;;;;;;5058113;28;20410;-90
2022/03/29 06:22:56;;;;;;;;;;;8.00;97.30;;;;;;5075899;28;20362;-88
2022/03/29 06:25:21;;;;;;;;;;;8.10;97.40;;;;;;5075821;28;19938;-91
2022/03/29 06:27:48;;;;;;;;;;;8.10;97.40;;;;;;5074124;28;20350;-90
2022/03/29 06:30:15;;;;;;;;;;;8.10;97.30;;;;;;5075491;28;20385;-90
2022/03/29 06:32:48;;;;;;;;;;;8.10;97.30;;;;;;5074540;28;19908;-89
2022/03/29 06:35:22;;;;;;;;;;;8.20;97.40;;;;;;5073262;28;19915;-90
2022/03/29 06:38:10;;;;;;;;;;;8.20;97.40;;;;;;5073781;28;19909;-91
2022/03/29 06:40:41;;;;;;;;;;;8.30;97.30;;;;;;5064724;28;20007;-91
2022/03/29 06:43:26;;;;;;;;;;;;;;;;;;;;;
2022/03/29 06:46:01;;;;;;;;;;;8.20;97.30;;;;;;5074948;28;19920;-89
2022/03/29 06:48:30;;;;;;;;;;;8.20;97.40;;;;;;5057292;28;19931;-91
2022/03/29 06:51:12;;;;;;;;;;;;;;;;;;;;;
2022/03/29 06:54:00;;;;;;;;;;;8.20;97.80;;;;;;5075613;28;19924;-92
2022/03/29 06:56:38;;;;;;;;;;;;;;;;;;;;;
2022/03/29 06:59:17;;;;;;;;;;;;;;;;;;;;;
2022/03/29 07:02:19;;;;;;;;;;;;;;;;;;;;;
2022/03/29 07:45:03;;;;;;;;;;;8.10;97.30;;;;;;5013623;28;19925;-90
2022/03/29 07:47:41;;;;;;;;;;;8.10;97.20;;;;;;5041151;28;19913;-90
2022/03/29 07:56:22;;;;;;;;;;;8.10;97.10;;;;;;5047369;28;20246;-89
2022/03/29 07:58:56;;;;;;;;;;;8.20;96.90;;;;;;5075160;28;20034;-91
2022/03/29 08:01:22;;;;;;;;;;;8.20;96.80;;;;;;5075051;28;19954;-89
2022/03/29 08:03:57;;;;;;;;;;;8.30;96.70;;;;;;5073062;28;19912;-91
2022/03/29 08:06:43;;;;;;;;;;;8.30;96.60;;;;;;5073173;28;20388;-90
2022/03/29 08:09:14;;;;;;;;;;;8.30;96.40;;;;;;5073840;28;19915;-89
2022/03/29 08:11:40;;;;;;;;;;;8.20;96.30;;;;;;5074110;28;19912;-90
2022/03/29 08:14:27;;;;;;;;;;;;;;;;;;;;;
2022/03/29 08:16:56;;;;;;;;;;;8.20;96.20;;;;;;5076620;28;19983;-89
2022/03/29 08:19:50;;;;;;;;;;;8.30;96.10;;;;;;5074794;28;20324;-90
2022/03/29 08:22:55;;;;;;;;;;;8.30;96.00;;;;;;5068749;28;19912;-89
2022/03/29 08:25:43;;;;;;;;;;;;;;;;;;;;;
2022/03/29 08:34:07;;;;;;;;;;;8.40;95.80;;;;;;5034112;28;19913;-89
2022/03/29 08:36:46;;;;;;;;;;;;;;;;;;;;;
2022/03/29 08:39:14;;;;;;;;;;;8.50;95.70;;;;;;5080525;28;20344;-88
2022/03/29 08:42:23;;;;;;;;;;;8.50;95.60;;;;;;5075843;28;19999;-93
2022/03/29 09:00:35;;;;;;;;;;;;;;;;;;;;;
2022/03/29 09:03:09;;;;;;;;;;;8.60;95.20;;;;;;5019465;28;19937;-90
2022/03/29 09:05:43;;;;;;;;;;;8.70;95.20;;;;;;5080367;28;19920;-91
2022/03/29 09:11:53;;;;;;;;;;;;;;;;;;;;;
2022/03/29 09:14:54;;;;;;;;;;;8.80;94.60;;;;;;5078282;28;20366;-90
2022/03/29 09:20:51;;;;;;;;;;;8.90;94.60;;;;;;5073157;28;19915;-91
2022/03/29 09:26:38;;;;;;;;;;;;;;;;;;;;;
2022/03/29 09:32:51;;;;;;;;;;;9.00;94.10;;;;;;5015115;28;19910;-95
2022/03/29 09:35:29;;;;;;;;;;;9.00;94.00;;;;;;4976112;28;19910;-93
2022/03/29 09:38:33;;;;;;;;;;;;;;;;;;;;;
2022/03/29 09:50:36;;;;;;;;;;;;;;;;;;;;;
2022/03/29 09:56:30;;;;;;;;;;;;;;;;;;;;;
2022/03/29 10:02:33;;;;;;;;;;;;;;;;;;;;;
2022/03/29 10:17:51;;;;;;;;;;;9.50;92.60;;;;;;4902639;29;19955;-92
2022/03/29 10:20:28;;;;;;;;;;;9.50;92.30;;;;;;4937545;29;20350;-93
2022/03/29 10:23:14;;;;;;;;;;;;;;;;;;;;;
2022/03/29 10:25:55;;;;;;;;;;;9.60;92.30;;;;;;4937866;29;19929;-91
2022/03/29 10:34:55;;;;;;;;;;;;;;;;;;;;;
2022/03/29 10:37:37;;;;;;;;;;;;;;;;;;;;;
2022/03/29 10:40:27;;;;;;;;;;;9.60;92.30;;;;;;5054578;28;19956;-90
2022/03/29 10:43:01;;;;;;;;;;;9.70;92.30;;;;;;5020781;28;19913;-91
2022/03/29 10:45:50;;;;;;;;;;;9.70;92.10;;;;;;5017969;28;19917;-89
2022/03/29 10:48:34;;;;;;;;;;;;;;;;;;;;;
2022/03/29 10:51:00;;;;;;;;;;;9.90;92.20;;;;;;5074993;28;19930;-90
2022/03/29 10:54:10;;;;;;;;;;;10.10;92.20;;;;;;5063303;28;19999;-90
2022/03/29 10:59:58;;;;;;;;;;;10.30;91.80;;;;;;4993778;28;19913;-92
2022/03/29 11:02:32;;;;;;;;;;;10.40;91.50;;;;;;4994051;28;20050;-90
2022/03/29 11:05:15;;;;;;;;;;;10.50;91.50;;;;;;4994382;28;20025;-91
2022/03/29 11:14:26;;;;;;;;;;;;;;;;;;;;;
2022/03/29 11:17:08;;;;;;;;;;;;;;;;;;;;;
2022/03/29 11:20:25;;;;;;;;;;;;;;;;;;;;;
2022/03/29 11:23:13;;;;;;;;;;;10.70;90.60;;;;;;5035322;28;19948;-90
2022/03/29 11:29:36;;;;;;;;;;;;;;;;;;;;;
2022/03/29 11:35:26;;;;;;;;;;;;;;;;;;;;;
2022/03/29 12:07:14;;;;;;;;;;;11.80;87.40;;;;;;4748471;30;20276;-92
2022/03/29 12:22:25;;;;;;;;;;;;;;;;;;;;;
2022/03/29 12:25:53;;;;;;;;;;;12.10;84.70;;;;;;4897273;29;19910;-93
2022/03/29 12:41:05;;;;;;;;;;;;;;;;;;;;;
2022/03/29 12:43:45;;;;;;;;;;;12.60;84.10;;;;;;4974150;28;19906;-92
2022/03/29 12:46:39;;;;;;;;;;;;;;;;;;;;;
2022/03/29 12:49:37;;;;;;;;;;;;;;;;;;;;;
2022/03/29 13:04:39;;;;;;;;;;;12.90;80.30;;;;;;5036113;28;19995;-89
2022/03/29 13:07:32;;;;;;;;;;;12.90;80.70;;;;;;5052721;28;19923;-91
2022/03/29 13:13:40;;;;;;;;;;;;;;;;;;;;;
2022/03/29 13:25:40;;;;;;;;;;;13.20;80.00;;;;;;5006983;28;19913;-90
2022/03/29 13:31:14;;;;;;;;;;;13.40;79.90;;;;;;5034720;28;19905;-90
2022/03/29 13:34:13;;;;;;;;;;;;;;;;;;;;;
2022/03/29 13:46:28;;;;;;;;;;;13.50;76.20;;;;;;5068249;28;19912;-90
2022/03/29 13:49:25;;;;;;;;;;;;;;;;;;;;;
2022/03/29 13:52:00;;;;;;;;;;;13.60;76.00;;;;;;5087777;28;20001;-91
2022/03/29 13:54:37;;;;;;;;;;;13.70;75.60;;;;;;5115605;28;19900;-91
2022/03/29 14:00:06;;;;;;;;;;;13.70;74.30;;;;;;5088711;28;19909;-92
2022/03/29 14:06:02;;;;;;;;;;;;;;;;;;;;;
2022/03/29 14:09:00;;;;;;;;;;;;;;;;;;;;;
2022/03/29 14:11:41;;;;;;;;;;;13.70;73.70;;;;;;5076739;28;19904;-89
2022/03/29 14:14:32;;;;;;;;;;;13.80;72.30;;;;;;5060000;28;19952;-90
2022/03/29 14:20:44;;;;;;;;;;;13.90;73.20;;;;;;5076447;28;19905;-91
2022/03/29 14:23:39;;;;;;;;;;;13.90;73.20;;;;;;5079419;28;19999;-92
2022/03/29 14:32:09;;;;;;;;;;;14.00;71.20;;;;;;5065483;28;19905;-91
2022/03/29 14:35:09;;;;;;;;;;;;;;;;;;;;;
2022/03/29 14:38:31;;;;;;;;;;;;;;;;;;;;;
2022/03/29 14:40:54;;;;;;;;;;;14.10;69.50;;;;;;5072135;28;19998;-90
2022/03/29 14:50:04;;;;;;;;;;;14.20;66.40;;;;;;5074780;28;20313;-90
2022/03/29 14:52:45;;;;;;;;;;;14.10;66.20;;;;;;5071829;28;19909;-91
2022/03/29 14:55:41;;;;;;;;;;;;;;;;;;;;;
2022/03/29 14:58:22;;;;;;;;;;;;;;;;;;;;;
2022/03/29 15:01:18;;;;;;;;;;;;;;;;;;;;;
2022/03/29 15:04:13;;;;;;;;;;;14.10;64.00;;;;;;5074679;28;19904;-90
2022/03/29 15:07:05;;;;;;;;;;;14.10;63.00;;;;;;5090539;28;19908;-89
2022/03/29 15:09:38;;;;;;;;;;;14.10;63.30;;;;;;5073545;28;20370;-91
2022/03/29 15:31:05;;;;;;;;;;;14.10;62.00;;;;;;5012280;28;19913;-90
2022/03/29 15:33:59;;;;;;;;;;;14.20;62.50;;;;;;5019190;28;19926;-89
2022/03/29 15:36:45;;;;;;;;;;;;;;;;;;;;;
2022/03/29 15:42:40;;;;;;;;;;;;;;;;;;;;;
2022/03/29 15:48:25;;;;;;;;;;;14.10;62.20;;;;;;5074684;28;19908;-91
2022/03/29 15:51:02;;;;;;;;;;;14.10;62.00;;;;;;5066154;28;19983;-91
2022/03/29 15:53:49;;;;;;;;;;;14.00;61.70;;;;;;5093760;28;19908;-90
2022/03/29 15:56:53;;;;;;;;;;;;;;;;;;;;;
2022/03/29 16:02:41;;;;;;;;;;;14.00;63.10;;;;;;5074846;28;19904;-91
2022/03/29 16:08:31;;;;;;;;;;;;;;;;;;;;;
2022/03/29 16:11:36;;;;;;;;;;;;;;;;;;;;;
2022/03/29 16:14:10;;;;;;;;;;;13.90;63.60;;;;;;5078289;28;19904;-91
2022/03/29 16:20:11;;;;;;;;;;;13.80;63.80;;;;;;5079138;28;19912;-91
2022/03/29 16:22:47;;;;;;;;;;;13.80;63.80;;;;;;5076856;28;20024;-91
2022/03/29 16:25:43;;;;;;;;;;;;;;;;;;;;;
2022/03/29 16:31:39;;;;;;;;;;;13.70;64.40;;;;;;5078115;28;19962;-90
2022/03/29 16:34:21;;;;;;;;;;;13.70;64.20;;;;;;5091931;28;19904;-90
2022/03/29 16:39:37;;;;;;;;;;;13.60;65.00;;;;;;5077613;28;19911;-89
2022/03/29 16:42:13;;;;;;;;;;;13.60;65.30;;;;;;5076537;28;19919;-89
2022/03/29 16:44:50;;;;;;;;;;;13.60;65.60;;;;;;5077337;28;19909;-91
2022/03/29 16:50:35;;;;;;;;;;;13.50;65.60;;;;;;5070903;28;19922;-93
2022/03/29 16:53:16;;;;;;;;;;;13.60;66.20;;;;;;5076802;28;20320;-91
2022/03/29 16:56:01;;;;;;;;;;;13.50;66.20;;;;;;5093613;28;19904;-89
2022/03/29 16:59:00;;;;;;;;;;;13.50;66.60;;;;;;5077424;28;19949;-90
2022/03/29 17:04:55;;;;;;;;;;;13.50;67.20;;;;;;5074697;28;20331;-91
2022/03/29 17:07:44;;;;;;;;;;;13.50;67.40;;;;;;5077704;28;20350;-92
2022/03/29 17:10:30;;;;;;;;;;;13.40;67.10;;;;;;5076942;28;19909;-91
2022/03/29 17:12:58;;;;;;;;;;;13.40;67.10;;;;;;5062002;28;19930;-91
2022/03/29 17:15:37;;;;;;;;;;;13.40;66.30;;;;;;5077315;28;19912;-90
2022/03/29 17:18:23;;;;;;;;;;;;;;;;;;;;;
2022/03/29 17:23:50;;;;;;;;;;;13.20;66.30;;;;;;5072745;28;19968;-93
2022/03/29 17:26:19;;;;;;;;;;;13.20;66.40;;;;;;5100538;28;19908;-89
2022/03/29 17:28:54;;;;;;;;;;;13.20;66.60;;;;;;5100474;28;20434;-91
2022/03/29 17:31:31;;;;;;;;;;;13.20;66.90;;;;;;5092026;28;20001;-89
2022/03/29 17:34:12;;;;;;;;;;;13.00;66.70;;;;;;5076834;28;19911;-90
2022/03/29 17:36:37;;;;;;;;;;;13.00;67.10;;;;;;5076983;28;19912;-91
2022/03/29 17:39:24;;;;;;;;;;;;;;;;;;;;;
2022/03/29 17:41:50;;;;;;;;;;;12.90;67.20;;;;;;5076673;28;19908;-91
2022/03/29 17:44:28;;;;;;;;;;;13.00;67.50;;;;;;5075978;28;20015;-91
2022/03/29 17:46:54;;;;;;;;;;;13.00;67.80;;;;;;5076808;28;20003;-90
2022/03/29 17:49:46;;;;;;;;;;;12.90;67.90;;;;;;5076394;28;19943;-90
2022/03/29 17:52:17;;;;;;;;;;;12.90;68.10;;;;;;5074957;28;19917;-93
2022/03/29 17:54:46;;;;;;;;;;;12.90;68.20;;;;;;5075586;28;19908;-91
2022/03/29 17:57:32;;;;;;;;;;;12.80;68.20;;;;;;5075487;28;19928;-93
2022/03/29 18:06:16;;;;;;;;;;;12.80;68.90;;;;;;5035240;28;20283;-91
2022/03/29 18:21:05;;;;;;;;;;;12.40;70.90;;;;;;5015407;28;19928;-91
2022/03/29 18:33:41;;;;;;;;;;;;;;;;;;;;;
2022/03/29 18:49:09;;;;;;;;;;;11.90;71.70;;;;;;4907023;29;19931;-91
2022/03/29 19:02:01;;;;;;;;;;;;;;;;;;;;;
2022/03/29 23:34:16;;;;;;;;;;;;;;;;;;;;;
